sensor_id;sensor_type;location;lat;lon;timestamp;pressure;altitude;pressure_sealevel;temperature;humidity
47104;BME280;32853;52.164;5.400;2023-02-20T00:01:50;102416.66;;;8.43;100.00
47104;BME280;32853;52.164;5.400;2023-02-20T00:04:16;102434.84;;;8.48;100.00
47104;BME280;32853;52.164;5.400;2023-02-20T00:06:46;102321.28;;;7.97;100.00
47104;BME280;32853;52.164;5.400;2023-02-20T00:09:12;102337.84;;;7.83;100.00
47104;BME280;32853;52.164;5.400;2023-02-20T00:11:41;102438.31;;;8.52;100.00
47104;BME280;32853;52.164;5.400;2023-02-20T00:14:06;102396.69;;;8.27;100.00
47104;BME280;32853;52.164;5.400;2023-02-20T00:16:46;102391.44;;;8.42;100.00
47104;BME280;32853;52.164;5.400;2023-02-20T00:19:14;102322.25;;;7.82;100.00
47104;BME280;32853;52.164;5.400;2023-02-20T00:21:47;102406.16;;;8.54;100.00
47104;BME280;32853;52.164;5.400;2023-02-20T00:24:31;102361.88;;;8.42;100.00
47104;BME280;32853;52.164;5.400;2023-02-20T00:27:06;102366.25;;;8.38;100.00
47104;BME280;32853;52.164;5.400;2023-02-20T00:29:32;102343.69;;;8.28;100.00
47104;BME280;32853;52.164;5.400;2023-02-20T00:31:58;102385.34;;;8.43;100.00
47104;BME280;32853;52.164;5.400;2023-02-20T00:34:26;102396.59;;;8.52;100.00
47104;BME280;32853;52.164;5.400;2023-02-20T00:36:51;102386.22;;;8.46;100.00
47104;BME280;32853;52.164;5.400;2023-02-20T00:39:17;102348.94;;;8.19;100.00
47104;BME280;32853;52.164;5.400;2023-02-20T00:41:57;102380.88;;;8.61;100.00
47104;BME280;32853;52.164;5.400;2023-02-20T00:44:23;102393.13;;;8.50;100.00
47104;BME280;32853;52.164;5.400;2023-02-20T00:46:48;102374.88;;;8.48;100.00
47104;BME280;32853;52.164;5.400;2023-02-20T00:49:16;102372.16;;;8.66;100.00
47104;BME280;32853;52.164;5.400;2023-02-20T00:51:41;102368.72;;;8.60;100.00
47104;BME280;32853;52.164;5.400;2023-02-20T00:54:10;102363.53;;;8.58;100.00
47104;BME280;32853;52.164;5.400;2023-02-20T00:56:36;102347.13;;;8.39;100.00
47104;BME280;32853;52.164;5.400;2023-02-20T00:59:16;102349.63;;;8.56;100.00
47104;BME280;32853;52.164;5.400;2023-02-20T01:01:42;102359.13;;;8.65;100.00
47104;BME280;32853;52.164;5.400;2023-02-20T01:04:09;102334.88;;;8.54;100.00
47104;BME280;32853;52.164;5.400;2023-02-20T01:06:34;102343.56;;;8.53;100.00
47104;BME280;32853;52.164;5.400;2023-02-20T01:08:59;102284.66;;;8.20;100.00
47104;BME280;32853;52.164;5.400;2023-02-20T01:11:25;102265.53;;;8.25;100.00
47104;BME280;32853;52.164;5.400;2023-02-20T01:13:50;102307.13;;;8.42;100.00
47104;BME280;32853;52.164;5.400;2023-02-20T01:16:21;102287.19;;;8.36;100.00
47104;BME280;32853;52.164;5.400;2023-02-20T01:18:52;102292.38;;;8.44;100.00
47104;BME280;32853;52.164;5.400;2023-02-20T01:21:18;102294.00;;;8.56;100.00
47104;BME280;32853;52.164;5.400;2023-02-20T01:23:45;102294.09;;;8.45;100.00
47104;BME280;32853;52.164;5.400;2023-02-20T01:26:10;102288.84;;;8.48;100.00
47104;BME280;32853;52.164;5.400;2023-02-20T01:28:36;102280.97;;;8.53;100.00
47104;BME280;32853;52.164;5.400;2023-02-20T01:31:02;102301.06;;;8.43;100.00
47104;BME280;32853;52.164;5.400;2023-02-20T01:33:27;102290.63;;;8.44;100.00
47104;BME280;32853;52.164;5.400;2023-02-20T01:35:52;102247.34;;;8.16;100.00
47104;BME280;32853;52.164;5.400;2023-02-20T01:38:18;102279.38;;;8.36;100.00
47104;BME280;32853;52.164;5.400;2023-02-20T01:40:48;102234.19;;;8.31;100.00
47104;BME280;32853;52.164;5.400;2023-02-20T01:43:14;102276.69;;;8.47;100.00
47104;BME280;32853;52.164;5.400;2023-02-20T01:45:40;102288.06;;;8.38;100.00
47104;BME280;32853;52.164;5.400;2023-02-20T01:48:18;102269.69;;;8.52;100.00
47104;BME280;32853;52.164;5.400;2023-02-20T01:50:44;102290.63;;;8.41;100.00
47104;BME280;32853;52.164;5.400;2023-02-20T01:53:29;102273.13;;;8.57;100.00
47104;BME280;32853;52.164;5.400;2023-02-20T01:55:58;102271.56;;;8.35;100.00
47104;BME280;32853;52.164;5.400;2023-02-20T01:58:36;102281.06;;;8.43;100.00
47104;BME280;32853;52.164;5.400;2023-02-20T02:01:16;102296.72;;;8.43;100.00
47104;BME280;32853;52.164;5.400;2023-02-20T02:03:55;102241.22;;;8.23;100.00
47104;BME280;32853;52.164;5.400;2023-02-20T02:06:24;102278.25;;;8.68;100.00
47104;BME280;32853;52.164;5.400;2023-02-20T02:12:26;102203.94;;;8.15;100.00
47104;BME280;32853;52.164;5.400;2023-02-20T02:15:02;102236.78;;;8.39;100.00
47104;BME280;32853;52.164;5.400;2023-02-20T02:34:49;102224.59;;;8.44;100.00
47104;BME280;32853;52.164;5.400;2023-02-20T02:38:39;102223.66;;;8.48;100.00
47104;BME280;32853;52.164;5.400;2023-02-20T02:46:34;102145.78;;;8.11;100.00
47104;BME280;32853;52.164;5.400;2023-02-20T02:49:21;102202.00;;;8.43;100.00
47104;BME280;32853;52.164;5.400;2023-02-20T02:52:00;102219.06;;;8.76;100.00
47104;BME280;32853;52.164;5.400;2023-02-20T02:54:40;102210.28;;;8.82;100.00
47104;BME280;32853;52.164;5.400;2023-02-20T02:57:23;102210.25;;;8.85;100.00
47104;BME280;32853;52.164;5.400;2023-02-20T03:00:11;102206.81;;;8.83;100.00
47104;BME280;32853;52.164;5.400;2023-02-20T03:05:30;102208.50;;;8.88;100.00
47104;BME280;32853;52.164;5.400;2023-02-20T03:08:17;102212.84;;;8.89;100.00
47104;BME280;32853;52.164;5.400;2023-02-20T03:10:47;102223.31;;;8.83;100.00
47104;BME280;32853;52.164;5.400;2023-02-20T03:13:25;102200.81;;;8.76;100.00
47104;BME280;32853;52.164;5.400;2023-02-20T03:16:21;102147.03;;;8.63;100.00
47104;BME280;32853;52.164;5.400;2023-02-20T03:18:51;102155.72;;;8.65;100.00
47104;BME280;32853;52.164;5.400;2023-02-20T03:21:21;102209.25;;;8.99;100.00
47104;BME280;32853;52.164;5.400;2023-02-20T03:23:59;102198.66;;;9.09;100.00
47104;BME280;32853;52.164;5.400;2023-02-20T03:26:31;102204.97;;;8.91;100.00
47104;BME280;32853;52.164;5.400;2023-02-20T03:29:19;102200.13;;;9.34;100.00
47104;BME280;32853;52.164;5.400;2023-02-20T03:32:06;102128.47;;;8.89;100.00
47104;BME280;32853;52.164;5.400;2023-02-20T03:34:52;102195.97;;;9.18;100.00
47104;BME280;32853;52.164;5.400;2023-02-20T03:37:41;102194.31;;;9.11;100.00
47104;BME280;32853;52.164;5.400;2023-02-20T03:40:32;102177.91;;;9.01;100.00
47104;BME280;32853;52.164;5.400;2023-02-20T03:43:23;102200.38;;;9.13;100.00
47104;BME280;32853;52.164;5.400;2023-02-20T03:46:12;102136.34;;;8.87;100.00
47104;BME280;32853;52.164;5.400;2023-02-20T03:49:12;102166.34;;;9.19;100.00
47104;BME280;32853;52.164;5.400;2023-02-20T03:55:14;102195.03;;;9.23;100.00
47104;BME280;32853;52.164;5.400;2023-02-20T03:57:44;102162.00;;;9.21;100.00
47104;BME280;32853;52.164;5.400;2023-02-20T04:00:15;102174.09;;;9.26;100.00
47104;BME280;32853;52.164;5.400;2023-02-20T04:02:45;102075.47;;;8.87;100.00
47104;BME280;32853;52.164;5.400;2023-02-20T04:05:15;102097.00;;;9.02;100.00
47104;BME280;32853;52.164;5.400;2023-02-20T04:07:59;102157.28;;;9.47;100.00
47104;BME280;32853;52.164;5.400;2023-02-20T04:10:32;102101.22;;;9.13;100.00
47104;BME280;32853;52.164;5.400;2023-02-20T04:13:00;102125.47;;;9.21;100.00
47104;BME280;32853;52.164;5.400;2023-02-20T04:15:29;102154.66;;;9.49;100.00
47104;BME280;32853;52.164;5.400;2023-02-20T04:18:10;102158.16;;;9.46;100.00
47104;BME280;32853;52.164;5.400;2023-02-20T04:20:37;102157.41;;;9.38;100.00
47104;BME280;32853;52.164;5.400;2023-02-20T04:23:12;102173.72;;;9.52;100.00
47104;BME280;32853;52.164;5.400;2023-02-20T04:25:41;102164.84;;;9.64;100.00
47104;BME280;32853;52.164;5.400;2023-02-20T04:28:10;102169.34;;;9.56;100.00
47104;BME280;32853;52.164;5.400;2023-02-20T04:30:35;102121.88;;;9.28;100.00
47104;BME280;32853;52.164;5.400;2023-02-20T04:33:01;102155.50;;;9.49;100.00
47104;BME280;32853;52.164;5.400;2023-02-20T04:35:26;102168.31;;;9.68;100.00
47104;BME280;32853;52.164;5.400;2023-02-20T04:37:51;102133.00;;;9.42;100.00
47104;BME280;32853;52.164;5.400;2023-02-20T04:40:19;102087.78;;;9.37;100.00
47104;BME280;32853;52.164;5.400;2023-02-20T04:42:47;102163.56;;;9.93;100.00
47104;BME280;32853;52.164;5.400;2023-02-20T04:45:14;102168.09;;;9.81;100.00
47104;BME280;32853;52.164;5.400;2023-02-20T04:47:42;102156.13;;;9.67;100.00
47104;BME280;32853;52.164;5.400;2023-02-20T04:50:07;102157.03;;;9.63;100.00
47104;BME280;32853;52.164;5.400;2023-02-20T04:52:32;102158.72;;;9.68;100.00
47104;BME280;32853;52.164;5.400;2023-02-20T04:54:59;102157.91;;;9.63;100.00
47104;BME280;32853;52.164;5.400;2023-02-20T04:57:24;102124.28;;;9.43;100.00
47104;BME280;32853;52.164;5.400;2023-02-20T04:59:49;102126.81;;;9.48;100.00
47104;BME280;32853;52.164;5.400;2023-02-20T05:02:15;102104.13;;;9.51;100.00
47104;BME280;32853;52.164;5.400;2023-02-20T05:04:40;102150.53;;;9.91;100.00
47104;BME280;32853;52.164;5.400;2023-02-20T05:07:05;102155.78;;;9.89;100.00
47104;BME280;32853;52.164;5.400;2023-02-20T05:09:31;102068.53;;;9.46;100.00
47104;BME280;32853;52.164;5.400;2023-02-20T05:11:56;102150.78;;;9.76;100.00
47104;BME280;32853;52.164;5.400;2023-02-20T05:14:22;102155.59;;;10.00;100.00
47104;BME280;32853;52.164;5.400;2023-02-20T05:16:48;102122.19;;;9.67;100.00
47104;BME280;32853;52.164;5.400;2023-02-20T05:19:15;102104.66;;;9.72;100.00
47104;BME280;32853;52.164;5.400;2023-02-20T05:21:42;102152.28;;;9.90;100.00
47104;BME280;32853;52.164;5.400;2023-02-20T05:24:27;102149.72;;;9.86;100.00
47104;BME280;32853;52.164;5.400;2023-02-20T05:26:53;102161.75;;;9.96;100.00
47104;BME280;32853;52.164;5.400;2023-02-20T05:29:19;102139.25;;;9.89;100.00
47104;BME280;32853;52.164;5.400;2023-02-20T05:31:45;102122.81;;;9.81;100.00
47104;BME280;32853;52.164;5.400;2023-02-20T05:34:10;102092.84;;;9.49;100.00
47104;BME280;32853;52.164;5.400;2023-02-20T05:36:35;102151.53;;;9.82;100.00
47104;BME280;32853;52.164;5.400;2023-02-20T05:39:01;102104.09;;;9.54;100.00
47104;BME280;32853;52.164;5.400;2023-02-20T05:41:27;102129.91;;;9.73;100.00
47104;BME280;32853;52.164;5.400;2023-02-20T05:43:52;102089.34;;;9.50;100.00
47104;BME280;32853;52.164;5.400;2023-02-20T05:46:21;102134.22;;;9.75;100.00
47104;BME280;32853;52.164;5.400;2023-02-20T05:48:48;102152.00;;;10.06;100.00
47104;BME280;32853;52.164;5.400;2023-02-20T05:51:26;102143.47;;;9.96;100.00
47104;BME280;32853;52.164;5.400;2023-02-20T05:53:52;102158.25;;;9.97;100.00
47104;BME280;32853;52.164;5.400;2023-02-20T05:56:18;102159.16;;;9.98;100.00
47104;BME280;32853;52.164;5.400;2023-02-20T05:58:46;102128.84;;;9.84;100.00
47104;BME280;32853;52.164;5.400;2023-02-20T06:01:26;102132.22;;;9.93;100.00
47104;BME280;32853;52.164;5.400;2023-02-20T06:03:57;102099.53;;;9.67;100.00
47104;BME280;32853;52.164;5.400;2023-02-20T06:06:33;102117.44;;;9.90;100.00
47104;BME280;32853;52.164;5.400;2023-02-20T06:08:58;102142.69;;;9.91;100.00
47104;BME280;32853;52.164;5.400;2023-02-20T06:11:25;102131.06;;;10.09;100.00
47104;BME280;32853;52.164;5.400;2023-02-20T06:13:50;102139.88;;;10.03;100.00
47104;BME280;32853;52.164;5.400;2023-02-20T06:16:25;102148.50;;;10.07;100.00
47104;BME280;32853;52.164;5.400;2023-02-20T06:18:52;102022.34;;;9.48;100.00
47104;BME280;32853;52.164;5.400;2023-02-20T06:21:19;102112.38;;;9.81;100.00
47104;BME280;32853;52.164;5.400;2023-02-20T06:23:47;102125.06;;;10.02;100.00
47104;BME280;32853;52.164;5.400;2023-02-20T06:26:13;102124.28;;;9.97;100.00
47104;BME280;32853;52.164;5.400;2023-02-20T06:28:45;102126.97;;;9.93;100.00
47104;BME280;32853;52.164;5.400;2023-02-20T06:31:26;102112.97;;;9.43;100.00
47104;BME280;32853;52.164;5.400;2023-02-20T06:33:54;102115.66;;;9.92;100.00
47104;BME280;32853;52.164;5.400;2023-02-20T06:36:28;102118.88;;;9.55;100.00
47104;BME280;32853;52.164;5.400;2023-02-20T06:38:54;102144.63;;;9.78;100.00
47104;BME280;32853;52.164;5.400;2023-02-20T06:41:26;102141.03;;;9.85;100.00
47104;BME280;32853;52.164;5.400;2023-02-20T06:43:51;102137.34;;;9.99;100.00
47104;BME280;32853;52.164;5.400;2023-02-20T06:46:23;102129.38;;;10.05;100.00
47104;BME280;32853;52.164;5.400;2023-02-20T06:48:51;102093.66;;;9.51;100.00
47104;BME280;32853;52.164;5.400;2023-02-20T06:51:20;102145.28;;;9.93;100.00
47104;BME280;32853;52.164;5.400;2023-02-20T06:53:51;102084.72;;;9.68;100.00
47104;BME280;32853;52.164;5.400;2023-02-20T06:56:35;102138.75;;;10.16;100.00
47104;BME280;32853;52.164;5.400;2023-02-20T06:59:05;102140.50;;;9.62;100.00
47104;BME280;32853;52.164;5.400;2023-02-20T07:01:38;102080.47;;;9.60;100.00
47104;BME280;32853;52.164;5.400;2023-02-20T07:04:05;102141.59;;;10.04;100.00
47104;BME280;32853;52.164;5.400;2023-02-20T07:06:37;102145.22;;;9.96;100.00
47104;BME280;32853;52.164;5.400;2023-02-20T07:09:02;102138.16;;;10.02;100.00
47104;BME280;32853;52.164;5.400;2023-02-20T07:11:27;102123.41;;;9.98;100.00
47104;BME280;32853;52.164;5.400;2023-02-20T07:13:53;102164.50;;;9.88;100.00
47104;BME280;32853;52.164;5.400;2023-02-20T07:16:18;102143.16;;;10.14;100.00
47104;BME280;32853;52.164;5.400;2023-02-20T07:18:43;102129.22;;;10.14;100.00
47104;BME280;32853;52.164;5.400;2023-02-20T07:21:09;102159.16;;;9.98;100.00
47104;BME280;32853;52.164;5.400;2023-02-20T07:23:34;102115.22;;;9.64;100.00
47104;BME280;32853;52.164;5.400;2023-02-20T07:26:00;102153.06;;;9.96;100.00
47104;BME280;32853;52.164;5.400;2023-02-20T07:28:25;102155.44;;;10.11;100.00
47104;BME280;32853;52.164;5.400;2023-02-20T07:30:50;102146.06;;;9.98;100.00
47104;BME280;32853;52.164;5.400;2023-02-20T07:33:17;102106.69;;;9.54;100.00
47104;BME280;32853;52.164;5.400;2023-02-20T07:35:44;102143.66;;;9.84;100.00
47104;BME280;32853;52.164;5.400;2023-02-20T07:38:13;102157.09;;;10.15;100.00
47104;BME280;32853;52.164;5.400;2023-02-20T07:40:40;102154.69;;;10.03;100.00
47104;BME280;32853;52.164;5.400;2023-02-20T07:43:14;102172.09;;;10.04;100.00
47104;BME280;32853;52.164;5.400;2023-02-20T07:45:40;102150.13;;;10.15;100.00
47104;BME280;32853;52.164;5.400;2023-02-20T07:48:13;102166.66;;;10.16;100.00
47104;BME280;32853;52.164;5.400;2023-02-20T07:50:42;102172.97;;;10.04;100.00
47104;BME280;32853;52.164;5.400;2023-02-20T07:53:13;102171.88;;;10.16;100.00
47104;BME280;32853;52.164;5.400;2023-02-20T07:55:38;102178.31;;;9.95;100.00
47104;BME280;32853;52.164;5.400;2023-02-20T07:58:14;102157.06;;;10.16;100.00
47104;BME280;32853;52.164;5.400;2023-02-20T08:00:39;102148.31;;;10.17;100.00
47104;BME280;32853;52.164;5.400;2023-02-20T08:03:05;102122.63;;;9.93;100.00
47104;BME280;32853;52.164;5.400;2023-02-20T08:05:35;102137.03;;;10.15;100.00
47104;BME280;32853;52.164;5.400;2023-02-20T08:08:00;102152.50;;;10.29;100.00
47104;BME280;32853;52.164;5.400;2023-02-20T08:10:27;102141.50;;;10.10;100.00
47104;BME280;32853;52.164;5.400;2023-02-20T08:12:53;102161.78;;;10.47;100.00
47104;BME280;32853;52.164;5.400;2023-02-20T08:15:20;102141.91;;;10.38;100.00
47104;BME280;32853;52.164;5.400;2023-02-20T08:17:47;102065.22;;;9.88;100.00
47104;BME280;32853;52.164;5.400;2023-02-20T08:20:22;102152.47;;;10.31;100.00
47104;BME280;32853;52.164;5.400;2023-02-20T08:22:52;102155.66;;;10.48;100.00
47104;BME280;32853;52.164;5.400;2023-02-20T08:25:25;102124.53;;;10.34;100.00
47104;BME280;32853;52.164;5.400;2023-02-20T08:27:50;102146.69;;;10.12;100.00
47104;BME280;32853;52.164;5.400;2023-02-20T08:30:21;102102.50;;;9.97;100.00
47104;BME280;32853;52.164;5.400;2023-02-20T08:32:53;102164.75;;;10.27;100.00
47104;BME280;32853;52.164;5.400;2023-02-20T08:35:21;101924.13;;;8.88;100.00
47104;BME280;32853;52.164;5.400;2023-02-20T08:37:50;102139.31;;;10.37;100.00
47104;BME280;32853;52.164;5.400;2023-02-20T08:40:15;102097.09;;;10.09;100.00
47104;BME280;32853;52.164;5.400;2023-02-20T08:42:41;102055.78;;;9.80;100.00
47104;BME280;32853;52.164;5.400;2023-02-20T08:45:07;102077.28;;;9.94;100.00
47104;BME280;32853;52.164;5.400;2023-02-20T08:47:36;102154.78;;;10.49;100.00
47104;BME280;32853;52.164;5.400;2023-02-20T08:50:08;102158.81;;;10.67;100.00
47104;BME280;32853;52.164;5.400;2023-02-20T08:52:34;102151.94;;;10.61;100.00
47104;BME280;32853;52.164;5.400;2023-02-20T08:54:59;102147.59;;;10.60;100.00
47104;BME280;32853;52.164;5.400;2023-02-20T08:57:24;102101.94;;;10.32;100.00
47104;BME280;32853;52.164;5.400;2023-02-20T09:00:05;102153.81;;;10.55;100.00
47104;BME280;32853;52.164;5.400;2023-02-20T09:02:30;102157.25;;;10.57;100.00
47104;BME280;32853;52.164;5.400;2023-02-20T09:04:58;102074.53;;;10.03;100.00
47104;BME280;32853;52.164;5.400;2023-02-20T09:07:30;102171.09;;;10.62;100.00
47104;BME280;32853;52.164;5.400;2023-02-20T09:10:02;102036.47;;;9.88;100.00
47104;BME280;32853;52.164;5.400;2023-02-20T09:12:29;102147.66;;;10.57;100.00
47104;BME280;32853;52.164;5.400;2023-02-20T09:14:55;102096.81;;;10.26;100.00
47104;BME280;32853;52.164;5.400;2023-02-20T09:17:20;102149.78;;;10.37;100.00
47104;BME280;32853;52.164;5.400;2023-02-20T09:19:49;102134.88;;;10.40;100.00
47104;BME280;32853;52.164;5.400;2023-02-20T09:22:14;102131.63;;;10.28;100.00
47104;BME280;32853;52.164;5.400;2023-02-20T09:24:40;102150.88;;;10.71;100.00
47104;BME280;32853;52.164;5.400;2023-02-20T09:27:06;102139.00;;;10.52;100.00
47104;BME280;32853;52.164;5.400;2023-02-20T09:29:33;102123.72;;;10.77;100.00
47104;BME280;32853;52.164;5.400;2023-02-20T09:32:01;102155.84;;;10.84;100.00
47104;BME280;32853;52.164;5.400;2023-02-20T09:34:28;102104.28;;;10.45;100.00
47104;BME280;32853;52.164;5.400;2023-02-20T09:37:01;102047.66;;;9.95;100.00
47104;BME280;32853;52.164;5.400;2023-02-20T09:39:26;102153.63;;;10.64;100.00
47104;BME280;32853;52.164;5.400;2023-02-20T09:49:43;102138.44;;;10.83;100.00
47104;BME280;32853;52.164;5.400;2023-02-20T09:52:24;102138.56;;;10.75;100.00
47104;BME280;32853;52.164;5.400;2023-02-20T09:57:54;102133.75;;;10.97;100.00
47104;BME280;32853;52.164;5.400;2023-02-20T10:00:34;102087.81;;;10.40;100.00
47104;BME280;32853;52.164;5.400;2023-02-20T10:03:21;102132.63;;;10.68;100.00
47104;BME280;32853;52.164;5.400;2023-02-20T10:05:50;102139.78;;;10.59;100.00
47104;BME280;32853;52.164;5.400;2023-02-20T10:08:19;102146.97;;;10.92;100.00
47104;BME280;32853;52.164;5.400;2023-02-20T10:10:48;102117.81;;;10.67;100.00
47104;BME280;32853;52.164;5.400;2023-02-20T10:13:31;102119.59;;;10.65;100.00
47104;BME280;32853;52.164;5.400;2023-02-20T10:16:24;102089.25;;;10.57;100.00
47104;BME280;32853;52.164;5.400;2023-02-20T10:19:01;102140.81;;;10.93;100.00
47104;BME280;32853;52.164;5.400;2023-02-20T10:24:36;102152.13;;;10.95;100.00
47104;BME280;32853;52.164;5.400;2023-02-20T10:30:16;102155.88;;;11.25;100.00
47104;BME280;32853;52.164;5.400;2023-02-20T10:32:58;102124.63;;;10.74;100.00
47104;BME280;32853;52.164;5.400;2023-02-20T10:35:36;102078.13;;;10.89;100.00
47104;BME280;32853;52.164;5.400;2023-02-20T10:38:08;102108.47;;;10.96;100.00
47104;BME280;32853;52.164;5.400;2023-02-20T10:40:40;102168.22;;;11.19;100.00
47104;BME280;32853;52.164;5.400;2023-02-20T10:43:19;102138.00;;;11.04;100.00
47104;BME280;32853;52.164;5.400;2023-02-20T10:46:11;102138.13;;;10.96;100.00
47104;BME280;32853;52.164;5.400;2023-02-20T10:48:38;102113.28;;;10.75;100.00
47104;BME280;32853;52.164;5.400;2023-02-20T10:51:16;102137.94;;;10.62;100.00
47104;BME280;32853;52.164;5.400;2023-02-20T10:56:32;102118.38;;;11.23;100.00
47104;BME280;32853;52.164;5.400;2023-02-20T11:01:34;102071.03;;;10.51;100.00
47104;BME280;32853;52.164;5.400;2023-02-20T11:04:20;102108.78;;;10.82;100.00
47104;BME280;32853;52.164;5.400;2023-02-20T11:06:54;102134.16;;;11.19;100.00
47104;BME280;32853;52.164;5.400;2023-02-20T11:09:20;102135.56;;;10.95;100.00
47104;BME280;32853;52.164;5.400;2023-02-20T11:11:47;102013.19;;;10.24;100.00
47104;BME280;32853;52.164;5.400;2023-02-20T11:14:33;102132.81;;;11.01;100.00
47104;BME280;32853;52.164;5.400;2023-02-20T11:17:28;102100.63;;;10.97;100.00
47104;BME280;32853;52.164;5.400;2023-02-20T11:19:56;102081.25;;;11.04;100.00
47104;BME280;32853;52.164;5.400;2023-02-20T11:22:42;102118.28;;;10.88;100.00
47104;BME280;32853;52.164;5.400;2023-02-20T11:25:38;102122.34;;;11.01;100.00
47104;BME280;32853;52.164;5.400;2023-02-20T11:28:34;102111.34;;;11.25;100.00
47104;BME280;32853;52.164;5.400;2023-02-20T11:31:02;102086.41;;;11.09;100.00
47104;BME280;32853;52.164;5.400;2023-02-20T11:33:29;102034.44;;;10.91;100.00
47104;BME280;32853;52.164;5.400;2023-02-20T11:36:11;102099.28;;;11.18;100.00
47104;BME280;32853;52.164;5.400;2023-02-20T11:38:40;102106.84;;;11.30;100.00
47104;BME280;32853;52.164;5.400;2023-02-20T11:41:24;102132.59;;;11.50;100.00
47104;BME280;32853;52.164;5.400;2023-02-20T11:44:18;102115.19;;;11.48;100.00
47104;BME280;32853;52.164;5.400;2023-02-20T11:46:44;102071.31;;;11.19;100.00
47104;BME280;32853;52.164;5.400;2023-02-20T11:49:23;101992.69;;;10.46;100.00
47104;BME280;32853;52.164;5.400;2023-02-20T11:52:14;102102.50;;;11.29;100.00
47104;BME280;32853;52.164;5.400;2023-02-20T11:54:43;102100.22;;;11.16;100.00
47104;BME280;32853;52.164;5.400;2023-02-20T11:57:26;102111.75;;;11.07;100.00
47104;BME280;32853;52.164;5.400;2023-02-20T12:00:16;102117.28;;;11.33;100.00
47104;BME280;32853;52.164;5.400;2023-02-20T12:02:52;102062.00;;;11.07;100.00
47104;BME280;32853;52.164;5.400;2023-02-20T12:05:20;102098.94;;;11.33;100.00
47104;BME280;32853;52.164;5.400;2023-02-20T12:07:58;102108.59;;;11.30;100.00
47104;BME280;32853;52.164;5.400;2023-02-20T12:10:40;102125.81;;;11.42;100.00
47104;BME280;32853;52.164;5.400;2023-02-20T12:13:13;102092.25;;;10.80;100.00
47104;BME280;32853;52.164;5.400;2023-02-20T12:15:39;102106.31;;;11.16;100.00
47104;BME280;32853;52.164;5.400;2023-02-20T12:21:08;101961.00;;;10.16;100.00
47104;BME280;32853;52.164;5.400;2023-02-20T12:24:12;102123.53;;;11.26;100.00
47104;BME280;32853;52.164;5.400;2023-02-20T12:26:50;102106.38;;;11.13;100.00
47104;BME280;32853;52.164;5.400;2023-02-20T12:29:46;102096.50;;;11.26;100.00
47104;BME280;32853;52.164;5.400;2023-02-20T12:35:32;102098.22;;;11.27;100.00
47104;BME280;32853;52.164;5.400;2023-02-20T12:43:50;102092.00;;;11.32;100.00
47104;BME280;32853;52.164;5.400;2023-02-20T12:49:50;102044.75;;;11.35;100.00
47104;BME280;32853;52.164;5.400;2023-02-20T12:55:19;102087.41;;;11.78;100.00
47104;BME280;32853;52.164;5.400;2023-02-20T13:00:40;102068.66;;;11.59;100.00
47104;BME280;32853;52.164;5.400;2023-02-20T13:03:32;102068.44;;;11.68;100.00
47104;BME280;32853;52.164;5.400;2023-02-20T13:05:54;102074.41;;;11.73;100.00
47104;BME280;32853;52.164;5.400;2023-02-20T13:08:33;102079.53;;;11.79;100.00
47104;BME280;32853;52.164;5.400;2023-02-20T13:11:03;102085.06;;;11.67;100.00
47104;BME280;32853;52.164;5.400;2023-02-20T13:16:21;102078.38;;;11.91;100.00
47104;BME280;32853;52.164;5.400;2023-02-20T13:18:58;102074.88;;;11.90;100.00
47104;BME280;32853;52.164;5.400;2023-02-20T13:21:29;102043.47;;;11.52;100.00
47104;BME280;32853;52.164;5.400;2023-02-20T13:26:49;102018.97;;;11.19;100.00
47104;BME280;32853;52.164;5.400;2023-02-20T13:29:25;102054.88;;;11.51;100.00
47104;BME280;32853;52.164;5.400;2023-02-20T13:34:42;102022.91;;;11.37;100.00
47104;BME280;32853;52.164;5.400;2023-02-20T13:45:48;102041.91;;;11.82;100.00
47104;BME280;32853;52.164;5.400;2023-02-20T13:53:56;102045.63;;;12.06;100.00
47104;BME280;32853;52.164;5.400;2023-02-20T14:02:32;102033.88;;;11.88;100.00
47104;BME280;32853;52.164;5.400;2023-02-20T14:05:05;101992.44;;;11.68;100.00
47104;BME280;32853;52.164;5.400;2023-02-20T14:07:38;102029.00;;;12.07;100.00
47104;BME280;32853;52.164;5.400;2023-02-20T14:10:29;102015.97;;;11.70;100.00
47104;BME280;32853;52.164;5.400;2023-02-20T14:15:30;102011.50;;;11.73;100.00
47104;BME280;32853;52.164;5.400;2023-02-20T14:17:57;101998.75;;;11.59;100.00
47104;BME280;32853;52.164;5.400;2023-02-20T14:20:41;101982.94;;;11.64;100.00
47104;BME280;32853;52.164;5.400;2023-02-20T14:23:26;102014.00;;;11.79;100.00
47104;BME280;32853;52.164;5.400;2023-02-20T14:25:59;102013.47;;;11.65;100.00
47104;BME280;32853;52.164;5.400;2023-02-20T14:28:30;102001.28;;;11.64;100.00
47104;BME280;32853;52.164;5.400;2023-02-20T14:31:37;102004.81;;;11.96;100.00
47104;BME280;32853;52.164;5.400;2023-02-20T14:34:14;101993.19;;;11.72;100.00
47104;BME280;32853;52.164;5.400;2023-02-20T14:36:55;102009.09;;;12.00;100.00
47104;BME280;32853;52.164;5.400;2023-02-20T14:39:43;102018.13;;;11.54;100.00
47104;BME280;32853;52.164;5.400;2023-02-20T14:42:14;102002.63;;;11.45;100.00
47104;BME280;32853;52.164;5.400;2023-02-20T14:44:40;102013.03;;;11.48;100.00
47104;BME280;32853;52.164;5.400;2023-02-20T14:47:13;101996.72;;;11.37;100.00
47104;BME280;32853;52.164;5.400;2023-02-20T14:49:39;101995.59;;;11.47;100.00
47104;BME280;32853;52.164;5.400;2023-02-20T14:54:33;102018.56;;;11.71;100.00
47104;BME280;32853;52.164;5.400;2023-02-20T14:56:58;101974.22;;;11.28;100.00
47104;BME280;32853;52.164;5.400;2023-02-20T14:59:31;102022.66;;;11.47;100.00
47104;BME280;32853;52.164;5.400;2023-02-20T15:02:15;101943.88;;;10.84;100.00